METAR Data
IDs: Format: Raw Decoded Include TAF

Data at: 0727 UTC 07 Dec 2022

KRBG 070653Z AUTO 00000KT 10SM OVC009 03/01 A3020 RMK AO2 CIG 005V011 SLP232 T00280011 $
KRBG 070649Z AUTO 00000KT 10SM OVC009 03/01 A3020 RMK AO2 CIG 005V011 $
KRBG 070617Z AUTO 00000KT 10SM SCT002 SCT008 OVC013 02/01 A3020 RMK AO2 T00220006 $
KRBG 070553Z AUTO 00000KT 10SM OVC002 02/00 A3020 RMK AO2 SLP230 T00170000 10072 20006 53006 $
KRBG 070522Z AUTO 00000KT 10SM BKN004 01/M01 A3019 RMK AO2 T00111006 $
KRBG 070514Z AUTO 00000KT 10SM SCT004 01/M01 A3019 RMK AO2 T00111006 $
KRBG 070453Z AUTO 00000KT 10SM CLR 01/M01 A3019 RMK AO2 SLP228 T00061006 $
KRBG 070353Z AUTO 00000KT 10SM CLR 02/00 A3018 RMK AO2 SLP224 T00170000 $
KRBG 070253Z AUTO 00000KT 10SM CLR 03/01 A3018 RMK AO2 SLP223 T00280011 53010 $
KRBG 070153Z AUTO 00000KT 10SM CLR 04/02 A3017 RMK AO2 SLP219 T00390017 $
KRBG 070053Z AUTO 36004KT 10SM CLR 06/03 A3016 RMK AO2 SLP216 T00610028 $
KRBG 062353Z AUTO 00000KT 10SM CLR 07/03 A3015 RMK AO2 SLP213 T00720028 10083 20044 56004 $
KRBG 062253Z AUTO 27003KT 10SM CLR 08/03 A3015 RMK AO2 SLP214 T00780028 $
KRBG 062234Z AUTO 34003KT 10SM FEW022 08/03 A3015 RMK AO2 T00830028 $
KRBG 062153Z AUTO 00000KT 10SM BKN021 08/03 A3015 RMK AO2 SLP214 T00780033 $
KRBG 062116Z AUTO 00000KT 10SM BKN022 07/03 A3016 RMK AO2 T00720028 $
KRBG 062053Z AUTO 00000KT 10SM CLR 07/03 A3016 RMK AO2 SLP218 T00670028 58001 $
KRBG 061953Z AUTO 21003KT 10SM CLR 07/03 A3016 RMK AO2 SLP217 T00720033 $
KRBG 061851Z AUTO 00000KT 10SM FEW008 SCT021 06/02 A3018 RMK AO2 SLP222 T00560022 $
KRBG 061850Z AUTO 00000KT 10SM FEW008 SCT021 06/02 A3017 RMK AO2 $
KRBG 061818Z AUTO 00000KT 10SM BKN008 OVC020 05/03 A3017 RMK AO2 T00500028 $
KRBG 061753Z AUTO 00000KT 10SM SCT006 OVC017 04/02 A3017 RMK AO2 SLP219 T00440022 10044 20028 51011 $
KRBG 061716Z AUTO 00000KT 10SM BKN005 OVC016 04/02 A3016 RMK AO2 CIG 004V008 T00390022 $
KRBG 061653Z AUTO 00000KT 9SM OVC003 04/02 A3016 RMK AO2 SLP217 T00390022 $
KRBG 061553Z AUTO 08003KT 4SM BR OVC003 03/02 A3015 RMK AO2 SLP214 T00330022 $
KRBG 061514Z AUTO 00000KT 3SM BR OVC002 03/02 A3014 RMK AO2 T00280022
KRBG 061453Z AUTO 00000KT 2 1/2SM BR OVC002 03/02 A3013 RMK AO2 SLP208 T00280022 53009 $
KRBG 061429Z AUTO 00000KT 2 1/2SM BR OVC002 03/02 A3013 RMK AO2 T00280022 $
KRBG 061353Z AUTO 11003KT 3SM BR OVC002 03/02 A3012 RMK AO2 SLP203 T00280022 $
KRBG 061333Z AUTO 00000KT 2 1/2SM BR OVC002 03/02 A3012 RMK AO2 T00280022 $
KRBG 061318Z AUTO 00000KT 1 1/2SM BR OVC002 03/02 A3011 RMK AO2 T00280022 $
KRBG 061253Z AUTO 10003KT 2SM BR OVC002 03/02 A3011 RMK AO2 SLP199 T00280022 $
KRBG 061236Z AUTO 00000KT 2SM BR OVC002 03/02 A3010 RMK AO2 T00280022 $
KRBG 061227Z AUTO 09003KT 1 3/4SM BR OVC002 03/02 A3010 RMK AO2 T00280022 $
KRBG 061153Z AUTO 00000KT 2SM BR OVC002 03/02 A3010 RMK AO2 SLP197 T00330022 10044 20033 50000 $
KRBG 061150Z AUTO 00000KT 2 1/2SM BR OVC002 03/02 A3010 RMK AO2 $
KRBG 061053Z AUTO 00000KT 5SM BR OVC003 03/02 A3011 RMK AO2 SLP200 T00330022 $
KRBG 060953Z AUTO 02003KT 5SM BR OVC003 03/02 A3010 RMK AO2 SLP197 T00330022 $
KRBG 060853Z AUTO 10004KT 6SM BR OVC003 03/02 A3010 RMK AO2 SLP196 T00330022 51009 $
KRBG 060821Z AUTO 10003KT 6SM BR OVC004 03/02 A3009 RMK AO2 T00330022 $
KRBG 060810Z AUTO 00000KT 8SM OVC005 04/02 A3009 RMK AO2 T00390022 $
KRBG 060753Z AUTO 00000KT 10SM OVC004 04/02 A3009 RMK AO2 SLP194 T00390022 400500022 $
KRBG 060653Z AUTO 35003KT 6SM BR OVC004 04/03 A3008 RMK AO2 SLP190 T00390028 $
KRBG 060553Z AUTO 00000KT 6SM BR OVC004 04/03 A3007 RMK AO2 SLP186 T00440028 10050 20044 51012 $
KRBG 060453Z AUTO 00000KT 8SM OVC004 04/03 A3006 RMK AO2 SLP183 T00440028
KRBG 060353Z AUTO 00000KT 10SM OVC005 04/03 A3005 RMK AO2 SLP180 T00440028
KRBG 060253Z AUTO 00000KT 10SM OVC005 04/03 A3004 RMK AO2 SLP175 T00440028 53010
KRBG 060153Z AUTO 00000KT 9SM OVC006 05/03 A3002 RMK AO2 SLP169 T00500028
KRBG 060053Z AUTO 00000KT 10SM OVC006 04/03 A3001 RMK AO2 SLP165 T00440028
KRBG 052353Z AUTO 00000KT 10SM OVC006 04/03 A3000 RMK AO2 SLP164 T00440028 10050 20028 53006
KRBG 052253Z AUTO 25003KT 7SM OVC006 05/03 A2999 RMK AO2 SLP158 T00500028
KRBG 052153Z AUTO VRB03KT 9SM OVC006 05/03 A2998 RMK AO2 SLP157 T00500028
KRBG 052053Z AUTO 00000KT 6SM BR OVC005 04/03 A2998 RMK AO2 SLP158 T00440028 58006
KRBG 052041Z AUTO 00000KT 6SM BR OVC005 04/03 A2999 RMK AO2 T00440028
KRBG 051953Z AUTO VRB03KT 7SM OVC004 04/03 A2999 RMK AO2 SLP160 T00390028